sensor_id;sensor_type;location;lat;lon;timestamp;P1;durP1;ratioP1;P2;durP2;ratioP2
41329;SDS011;34792;52.154;10.374;2022-12-07T00:01:38;10.77;;;5.10;;
41329;SDS011;34792;52.154;10.374;2022-12-07T00:04:05;7.50;;;5.03;;
41329;SDS011;34792;52.154;10.374;2022-12-07T00:06:33;8.07;;;4.50;;
41329;SDS011;34792;52.154;10.374;2022-12-07T00:09:00;8.35;;;4.90;;
41329;SDS011;34792;52.154;10.374;2022-12-07T00:11:26;6.70;;;4.03;;
41329;SDS011;34792;52.154;10.374;2022-12-07T00:13:53;10.35;;;4.80;;
41329;SDS011;34792;52.154;10.374;2022-12-07T00:16:20;8.57;;;6.15;;
41329;SDS011;34792;52.154;10.374;2022-12-07T00:18:47;7.78;;;4.65;;
41329;SDS011;34792;52.154;10.374;2022-12-07T00:23:40;9.90;;;4.10;;
41329;SDS011;34792;52.154;10.374;2022-12-07T00:26:10;7.72;;;4.10;;
41329;SDS011;34792;52.154;10.374;2022-12-07T00:28:41;8.65;;;4.65;;
41329;SDS011;34792;52.154;10.374;2022-12-07T00:31:10;6.22;;;4.03;;
41329;SDS011;34792;52.154;10.374;2022-12-07T00:33:37;8.05;;;4.55;;
41329;SDS011;34792;52.154;10.374;2022-12-07T00:36:04;8.15;;;4.38;;
41329;SDS011;34792;52.154;10.374;2022-12-07T00:38:32;10.48;;;4.78;;
41329;SDS011;34792;52.154;10.374;2022-12-07T00:40:59;9.77;;;4.75;;
41329;SDS011;34792;52.154;10.374;2022-12-07T00:43:27;7.82;;;3.88;;
41329;SDS011;34792;52.154;10.374;2022-12-07T00:45:53;7.63;;;3.63;;
41329;SDS011;34792;52.154;10.374;2022-12-07T00:48:19;8.00;;;4.50;;
41329;SDS011;34792;52.154;10.374;2022-12-07T00:50:45;9.35;;;4.35;;
41329;SDS011;34792;52.154;10.374;2022-12-07T00:53:11;8.02;;;4.95;;
41329;SDS011;34792;52.154;10.374;2022-12-07T00:55:36;7.85;;;4.00;;
41329;SDS011;34792;52.154;10.374;2022-12-07T00:58:02;6.47;;;4.05;;
41329;SDS011;34792;52.154;10.374;2022-12-07T01:00:28;10.43;;;4.40;;
41329;SDS011;34792;52.154;10.374;2022-12-07T01:02:53;8.63;;;4.32;;
41329;SDS011;34792;52.154;10.374;2022-12-07T01:05:19;8.68;;;4.55;;
41329;SDS011;34792;52.154;10.374;2022-12-07T01:07:44;5.68;;;3.47;;
41329;SDS011;34792;52.154;10.374;2022-12-07T01:10:11;4.95;;;3.22;;
41329;SDS011;34792;52.154;10.374;2022-12-07T01:12:37;5.53;;;3.22;;
41329;SDS011;34792;52.154;10.374;2022-12-07T01:15:03;9.10;;;4.13;;
41329;SDS011;34792;52.154;10.374;2022-12-07T01:17:29;5.15;;;3.45;;
41329;SDS011;34792;52.154;10.374;2022-12-07T01:19:55;9.88;;;4.40;;
41329;SDS011;34792;52.154;10.374;2022-12-07T01:22:20;10.85;;;3.72;;
41329;SDS011;34792;52.154;10.374;2022-12-07T01:24:46;7.93;;;4.22;;
41329;SDS011;34792;52.154;10.374;2022-12-07T01:27:12;7.07;;;4.07;;
41329;SDS011;34792;52.154;10.374;2022-12-07T01:29:38;6.95;;;3.90;;
41329;SDS011;34792;52.154;10.374;2022-12-07T01:32:04;7.13;;;3.63;;
41329;SDS011;34792;52.154;10.374;2022-12-07T01:34:30;7.65;;;4.60;;
41329;SDS011;34792;52.154;10.374;2022-12-07T01:36:56;7.18;;;4.90;;
41329;SDS011;34792;52.154;10.374;2022-12-07T01:39:22;6.97;;;3.63;;
41329;SDS011;34792;52.154;10.374;2022-12-07T01:41:48;6.53;;;3.25;;
41329;SDS011;34792;52.154;10.374;2022-12-07T01:44:23;10.63;;;4.55;;
41329;SDS011;34792;52.154;10.374;2022-12-07T01:47:01;4.82;;;3.47;;
41329;SDS011;34792;52.154;10.374;2022-12-07T01:49:32;10.73;;;4.25;;
41329;SDS011;34792;52.154;10.374;2022-12-07T01:52:21;4.38;;;3.58;;
41329;SDS011;34792;52.154;10.374;2022-12-07T01:54:57;5.55;;;3.13;;
41329;SDS011;34792;52.154;10.374;2022-12-07T01:57:26;7.80;;;2.75;;
41329;SDS011;34792;52.154;10.374;2022-12-07T01:59:52;7.15;;;3.35;;
41329;SDS011;34792;52.154;10.374;2022-12-07T02:02:23;7.30;;;4.43;;
41329;SDS011;34792;52.154;10.374;2022-12-07T02:04:56;7.35;;;3.28;;
41329;SDS011;34792;52.154;10.374;2022-12-07T02:07:22;5.25;;;3.03;;
41329;SDS011;34792;52.154;10.374;2022-12-07T02:09:48;6.75;;;3.47;;
41329;SDS011;34792;52.154;10.374;2022-12-07T02:12:14;6.32;;;3.78;;
41329;SDS011;34792;52.154;10.374;2022-12-07T02:14:39;4.32;;;3.15;;
41329;SDS011;34792;52.154;10.374;2022-12-07T02:20:00;9.48;;;3.65;;
41329;SDS011;34792;52.154;10.374;2022-12-07T02:26:02;5.47;;;3.50;;
41329;SDS011;34792;52.154;10.374;2022-12-07T02:31:46;8.98;;;3.35;;
41329;SDS011;34792;52.154;10.374;2022-12-07T02:34:42;6.55;;;3.33;;
41329;SDS011;34792;52.154;10.374;2022-12-07T02:37:11;5.75;;;3.08;;
41329;SDS011;34792;52.154;10.374;2022-12-07T02:39:53;5.80;;;2.70;;
41329;SDS011;34792;52.154;10.374;2022-12-07T02:42:25;6.07;;;2.70;;
41329;SDS011;34792;52.154;10.374;2022-12-07T02:44:55;4.88;;;3.33;;
41329;SDS011;34792;52.154;10.374;2022-12-07T02:47:21;5.20;;;3.28;;
41329;SDS011;34792;52.154;10.374;2022-12-07T02:49:47;7.38;;;4.13;;
41329;SDS011;34792;52.154;10.374;2022-12-07T02:52:14;6.65;;;2.88;;
41329;SDS011;34792;52.154;10.374;2022-12-07T02:54:40;7.43;;;3.40;;
41329;SDS011;34792;52.154;10.374;2022-12-07T02:57:13;5.45;;;3.47;;
41329;SDS011;34792;52.154;10.374;2022-12-07T03:02:38;5.93;;;3.67;;
41329;SDS011;34792;52.154;10.374;2022-12-07T03:13:44;4.60;;;3.05;;
41329;SDS011;34792;52.154;10.374;2022-12-07T03:18:23;8.15;;;3.28;;
41329;SDS011;34792;52.154;10.374;2022-12-07T03:20:50;5.07;;;2.85;;
41329;SDS011;34792;52.154;10.374;2022-12-07T03:23:18;8.57;;;3.88;;
41329;SDS011;34792;52.154;10.374;2022-12-07T03:25:48;7.22;;;3.25;;
41329;SDS011;34792;52.154;10.374;2022-12-07T03:28:16;6.72;;;3.08;;
41329;SDS011;34792;52.154;10.374;2022-12-07T03:33:27;7.82;;;3.38;;
41329;SDS011;34792;52.154;10.374;2022-12-07T03:35:59;4.88;;;3.22;;
41329;SDS011;34792;52.154;10.374;2022-12-07T03:38:36;6.28;;;4.22;;
41329;SDS011;34792;52.154;10.374;2022-12-07T03:41:06;5.40;;;2.83;;
41329;SDS011;34792;52.154;10.374;2022-12-07T03:43:40;5.78;;;3.08;;
41329;SDS011;34792;52.154;10.374;2022-12-07T03:54:39;5.97;;;3.28;;
41329;SDS011;34792;52.154;10.374;2022-12-07T03:57:06;7.97;;;3.60;;
41329;SDS011;34792;52.154;10.374;2022-12-07T03:59:33;5.85;;;3.47;;
41329;SDS011;34792;52.154;10.374;2022-12-07T04:02:03;5.38;;;2.78;;
41329;SDS011;34792;52.154;10.374;2022-12-07T04:04:30;5.88;;;3.40;;
41329;SDS011;34792;52.154;10.374;2022-12-07T04:06:55;4.57;;;2.83;;
41329;SDS011;34792;52.154;10.374;2022-12-07T04:09:21;6.35;;;2.25;;
41329;SDS011;34792;52.154;10.374;2022-12-07T04:11:47;6.25;;;3.22;;
41329;SDS011;34792;52.154;10.374;2022-12-07T04:14:12;5.95;;;3.20;;
41329;SDS011;34792;52.154;10.374;2022-12-07T04:16:45;6.10;;;3.50;;
41329;SDS011;34792;52.154;10.374;2022-12-07T04:19:18;4.75;;;3.13;;
41329;SDS011;34792;52.154;10.374;2022-12-07T04:21:45;5.25;;;2.78;;
41329;SDS011;34792;52.154;10.374;2022-12-07T04:24:11;7.07;;;2.92;;
41329;SDS011;34792;52.154;10.374;2022-12-07T04:26:38;4.93;;;2.38;;
41329;SDS011;34792;52.154;10.374;2022-12-07T04:29:03;5.60;;;3.13;;
41329;SDS011;34792;52.154;10.374;2022-12-07T04:31:29;3.85;;;2.25;;
41329;SDS011;34792;52.154;10.374;2022-12-07T04:33:54;5.90;;;3.47;;
41329;SDS011;34792;52.154;10.374;2022-12-07T04:36:20;4.25;;;2.40;;
41329;SDS011;34792;52.154;10.374;2022-12-07T04:38:46;3.42;;;2.13;;
41329;SDS011;34792;52.154;10.374;2022-12-07T04:41:12;8.32;;;2.70;;
41329;SDS011;34792;52.154;10.374;2022-12-07T04:43:37;4.22;;;2.13;;
41329;SDS011;34792;52.154;10.374;2022-12-07T04:46:03;5.05;;;2.53;;
41329;SDS011;34792;52.154;10.374;2022-12-07T04:48:29;4.53;;;2.88;;
41329;SDS011;34792;52.154;10.374;2022-12-07T04:50:54;4.50;;;2.65;;
41329;SDS011;34792;52.154;10.374;2022-12-07T04:53:20;5.30;;;2.78;;
41329;SDS011;34792;52.154;10.374;2022-12-07T04:55:46;6.63;;;3.10;;
41329;SDS011;34792;52.154;10.374;2022-12-07T04:58:12;5.97;;;2.75;;
41329;SDS011;34792;52.154;10.374;2022-12-07T05:00:38;6.60;;;2.88;;
41329;SDS011;34792;52.154;10.374;2022-12-07T05:03:03;3.83;;;2.22;;
41329;SDS011;34792;52.154;10.374;2022-12-07T05:05:29;5.43;;;3.03;;
41329;SDS011;34792;52.154;10.374;2022-12-07T05:07:54;6.55;;;3.08;;
41329;SDS011;34792;52.154;10.374;2022-12-07T05:10:20;4.05;;;2.03;;
41329;SDS011;34792;52.154;10.374;2022-12-07T05:12:45;5.22;;;3.38;;
41329;SDS011;34792;52.154;10.374;2022-12-07T05:15:12;6.53;;;2.80;;
41329;SDS011;34792;52.154;10.374;2022-12-07T05:17:38;4.43;;;2.60;;
41329;SDS011;34792;52.154;10.374;2022-12-07T05:20:04;4.68;;;2.20;;
41329;SDS011;34792;52.154;10.374;2022-12-07T05:22:30;5.82;;;2.75;;
41329;SDS011;34792;52.154;10.374;2022-12-07T05:24:56;4.88;;;2.63;;
41329;SDS011;34792;52.154;10.374;2022-12-07T05:27:21;6.28;;;3.83;;
41329;SDS011;34792;52.154;10.374;2022-12-07T05:29:47;7.78;;;3.03;;
41329;SDS011;34792;52.154;10.374;2022-12-07T05:32:14;7.60;;;5.55;;
41329;SDS011;34792;52.154;10.374;2022-12-07T05:34:39;10.50;;;6.57;;
41329;SDS011;34792;52.154;10.374;2022-12-07T05:37:05;6.60;;;5.00;;
41329;SDS011;34792;52.154;10.374;2022-12-07T05:39:30;5.93;;;4.68;;
41329;SDS011;34792;52.154;10.374;2022-12-07T05:41:56;5.97;;;4.75;;
41329;SDS011;34792;52.154;10.374;2022-12-07T05:44:37;6.18;;;5.10;;
41329;SDS011;34792;52.154;10.374;2022-12-07T05:47:06;6.45;;;4.35;;
41329;SDS011;34792;52.154;10.374;2022-12-07T05:49:32;6.18;;;3.67;;
41329;SDS011;34792;52.154;10.374;2022-12-07T05:51:57;7.57;;;3.45;;
41329;SDS011;34792;52.154;10.374;2022-12-07T05:54:23;5.25;;;3.05;;
41329;SDS011;34792;52.154;10.374;2022-12-07T05:56:49;6.57;;;3.13;;
41329;SDS011;34792;52.154;10.374;2022-12-07T05:59:14;3.90;;;2.85;;
41329;SDS011;34792;52.154;10.374;2022-12-07T06:04:25;4.90;;;2.95;;
41329;SDS011;34792;52.154;10.374;2022-12-07T06:06:52;6.47;;;3.17;;
41329;SDS011;34792;52.154;10.374;2022-12-07T06:09:18;8.38;;;2.83;;
41329;SDS011;34792;52.154;10.374;2022-12-07T06:11:45;3.05;;;2.17;;
41329;SDS011;34792;52.154;10.374;2022-12-07T06:14:29;4.38;;;1.95;;
41329;SDS011;34792;52.154;10.374;2022-12-07T06:16:55;3.63;;;2.55;;
41329;SDS011;34792;52.154;10.374;2022-12-07T06:19:20;10.02;;;2.20;;
41329;SDS011;34792;52.154;10.374;2022-12-07T06:21:46;4.00;;;2.00;;
41329;SDS011;34792;52.154;10.374;2022-12-07T06:24:12;5.35;;;2.58;;
41329;SDS011;34792;52.154;10.374;2022-12-07T06:26:38;3.85;;;2.15;;
41329;SDS011;34792;52.154;10.374;2022-12-07T06:29:04;6.40;;;3.15;;
41329;SDS011;34792;52.154;10.374;2022-12-07T06:31:30;5.28;;;2.85;;
41329;SDS011;34792;52.154;10.374;2022-12-07T06:33:57;5.28;;;2.40;;
41329;SDS011;34792;52.154;10.374;2022-12-07T06:36:26;8.55;;;2.65;;
41329;SDS011;34792;52.154;10.374;2022-12-07T06:38:52;6.13;;;1.85;;
41329;SDS011;34792;52.154;10.374;2022-12-07T06:41:18;3.58;;;1.92;;
41329;SDS011;34792;52.154;10.374;2022-12-07T06:43:43;3.55;;;1.85;;
41329;SDS011;34792;52.154;10.374;2022-12-07T06:46:09;3.67;;;2.08;;
41329;SDS011;34792;52.154;10.374;2022-12-07T06:48:35;4.03;;;1.67;;
41329;SDS011;34792;52.154;10.374;2022-12-07T06:51:00;3.33;;;1.65;;
41329;SDS011;34792;52.154;10.374;2022-12-07T06:53:26;3.45;;;2.55;;
41329;SDS011;34792;52.154;10.374;2022-12-07T06:55:51;8.27;;;1.40;;
41329;SDS011;34792;52.154;10.374;2022-12-07T06:58:17;3.05;;;1.75;;
41329;SDS011;34792;52.154;10.374;2022-12-07T07:00:43;7.60;;;1.20;;
41329;SDS011;34792;52.154;10.374;2022-12-07T07:03:09;3.90;;;1.60;;
41329;SDS011;34792;52.154;10.374;2022-12-07T07:05:35;2.03;;;1.15;;
41329;SDS011;34792;52.154;10.374;2022-12-07T07:08:00;2.28;;;1.50;;
41329;SDS011;34792;52.154;10.374;2022-12-07T07:10:26;3.95;;;1.65;;
41329;SDS011;34792;52.154;10.374;2022-12-07T07:12:52;5.18;;;1.92;;
41329;SDS011;34792;52.154;10.374;2022-12-07T07:15:17;3.70;;;1.83;;
41329;SDS011;34792;52.154;10.374;2022-12-07T07:17:43;3.13;;;1.88;;
41329;SDS011;34792;52.154;10.374;2022-12-07T07:20:09;7.45;;;1.77;;
41329;SDS011;34792;52.154;10.374;2022-12-07T07:22:35;2.97;;;1.20;;
41329;SDS011;34792;52.154;10.374;2022-12-07T07:25:00;3.05;;;1.67;;
41329;SDS011;34792;52.154;10.374;2022-12-07T07:27:26;2.88;;;1.52;;
41329;SDS011;34792;52.154;10.374;2022-12-07T07:29:51;11.63;;;1.70;;
41329;SDS011;34792;52.154;10.374;2022-12-07T07:32:17;2.88;;;1.30;;
41329;SDS011;34792;52.154;10.374;2022-12-07T07:34:43;6.95;;;1.48;;
41329;SDS011;34792;52.154;10.374;2022-12-07T07:37:08;2.72;;;1.65;;
41329;SDS011;34792;52.154;10.374;2022-12-07T07:39:35;2.17;;;1.20;;
41329;SDS011;34792;52.154;10.374;2022-12-07T07:42:01;4.30;;;1.33;;
41329;SDS011;34792;52.154;10.374;2022-12-07T07:44:27;2.50;;;1.33;;
41329;SDS011;34792;52.154;10.374;2022-12-07T07:46:52;3.47;;;1.40;;
41329;SDS011;34792;52.154;10.374;2022-12-07T07:49:18;1.90;;;1.08;;
41329;SDS011;34792;52.154;10.374;2022-12-07T07:51:43;2.90;;;1.48;;
41329;SDS011;34792;52.154;10.374;2022-12-07T07:54:09;8.95;;;1.48;;
41329;SDS011;34792;52.154;10.374;2022-12-07T07:56:34;2.45;;;1.13;;
41329;SDS011;34792;52.154;10.374;2022-12-07T07:59:00;3.28;;;1.55;;
41329;SDS011;34792;52.154;10.374;2022-12-07T08:01:26;5.75;;;1.30;;
41329;SDS011;34792;52.154;10.374;2022-12-07T08:03:51;2.80;;;0.88;;
41329;SDS011;34792;52.154;10.374;2022-12-07T08:06:17;2.35;;;1.45;;
41329;SDS011;34792;52.154;10.374;2022-12-07T08:08:42;2.35;;;1.10;;
41329;SDS011;34792;52.154;10.374;2022-12-07T08:11:08;3.00;;;1.58;;
41329;SDS011;34792;52.154;10.374;2022-12-07T08:13:34;5.18;;;1.73;;
41329;SDS011;34792;52.154;10.374;2022-12-07T08:16:04;2.58;;;1.17;;
41329;SDS011;34792;52.154;10.374;2022-12-07T08:18:34;1.95;;;1.38;;
41329;SDS011;34792;52.154;10.374;2022-12-07T08:21:01;2.08;;;1.13;;
41329;SDS011;34792;52.154;10.374;2022-12-07T08:23:26;3.25;;;1.40;;
41329;SDS011;34792;52.154;10.374;2022-12-07T08:25:52;2.67;;;1.42;;
41329;SDS011;34792;52.154;10.374;2022-12-07T08:28:18;2.08;;;1.15;;
41329;SDS011;34792;52.154;10.374;2022-12-07T08:30:43;3.50;;;1.67;;
41329;SDS011;34792;52.154;10.374;2022-12-07T08:33:09;4.03;;;1.55;;
41329;SDS011;34792;52.154;10.374;2022-12-07T08:35:35;4.03;;;1.40;;
41329;SDS011;34792;52.154;10.374;2022-12-07T08:38:01;2.65;;;1.27;;
41329;SDS011;34792;52.154;10.374;2022-12-07T08:40:27;1.98;;;1.25;;
41329;SDS011;34792;52.154;10.374;2022-12-07T08:42:53;2.10;;;1.42;;
41329;SDS011;34792;52.154;10.374;2022-12-07T08:45:19;2.78;;;1.42;;
41329;SDS011;34792;52.154;10.374;2022-12-07T08:47:50;1.92;;;1.10;;
41329;SDS011;34792;52.154;10.374;2022-12-07T08:50:20;2.78;;;1.48;;
41329;SDS011;34792;52.154;10.374;2022-12-07T08:52:48;1.58;;;1.08;;
41329;SDS011;34792;52.154;10.374;2022-12-07T08:55:17;1.33;;;0.90;;
41329;SDS011;34792;52.154;10.374;2022-12-07T08:57:42;12.93;;;1.55;;
41329;SDS011;34792;52.154;10.374;2022-12-07T09:00:08;1.98;;;1.00;;
41329;SDS011;34792;52.154;10.374;2022-12-07T09:02:34;3.33;;;1.75;;
41329;SDS011;34792;52.154;10.374;2022-12-07T09:05:00;2.05;;;1.23;;
41329;SDS011;34792;52.154;10.374;2022-12-07T09:07:25;1.48;;;0.88;;
41329;SDS011;34792;52.154;10.374;2022-12-07T09:09:51;2.65;;;1.40;;
41329;SDS011;34792;52.154;10.374;2022-12-07T09:12:17;2.53;;;1.33;;
41329;SDS011;34792;52.154;10.374;2022-12-07T09:14:42;2.88;;;1.02;;
41329;SDS011;34792;52.154;10.374;2022-12-07T09:17:09;3.28;;;1.35;;
41329;SDS011;34792;52.154;10.374;2022-12-07T09:19:36;1.27;;;0.73;;
41329;SDS011;34792;52.154;10.374;2022-12-07T09:22:02;1.33;;;0.73;;
41329;SDS011;34792;52.154;10.374;2022-12-07T09:24:29;1.98;;;1.35;;
41329;SDS011;34792;52.154;10.374;2022-12-07T09:26:55;2.65;;;1.25;;
41329;SDS011;34792;52.154;10.374;2022-12-07T09:29:21;1.67;;;1.00;;
41329;SDS011;34792;52.154;10.374;2022-12-07T09:31:47;2.55;;;1.08;;
41329;SDS011;34792;52.154;10.374;2022-12-07T09:34:12;2.42;;;1.52;;
41329;SDS011;34792;52.154;10.374;2022-12-07T09:36:38;2.83;;;1.10;;
41329;SDS011;34792;52.154;10.374;2022-12-07T09:39:03;1.60;;;0.68;;
41329;SDS011;34792;52.154;10.374;2022-12-07T09:41:30;2.88;;;1.55;;
41329;SDS011;34792;52.154;10.374;2022-12-07T09:43:59;2.75;;;1.20;;
41329;SDS011;34792;52.154;10.374;2022-12-07T09:46:29;2.20;;;1.30;;
41329;SDS011;34792;52.154;10.374;2022-12-07T09:48:59;1.48;;;0.80;;
41329;SDS011;34792;52.154;10.374;2022-12-07T09:51:25;1.90;;;1.13;;
41329;SDS011;34792;52.154;10.374;2022-12-07T09:53:54;1.85;;;1.05;;
41329;SDS011;34792;52.154;10.374;2022-12-07T09:56:21;2.03;;;0.75;;
41329;SDS011;34792;52.154;10.374;2022-12-07T09:58:47;1.63;;;1.05;;
41329;SDS011;34792;52.154;10.374;2022-12-07T10:01:15;1.42;;;0.82;;
41329;SDS011;34792;52.154;10.374;2022-12-07T10:03:52;3.20;;;1.38;;
41329;SDS011;34792;52.154;10.374;2022-12-07T10:06:19;2.65;;;1.35;;
41329;SDS011;34792;52.154;10.374;2022-12-07T10:08:45;3.05;;;1.60;;
41329;SDS011;34792;52.154;10.374;2022-12-07T10:11:11;1.65;;;0.75;;
41329;SDS011;34792;52.154;10.374;2022-12-07T10:16:03;2.25;;;1.10;;
41329;SDS011;34792;52.154;10.374;2022-12-07T10:21:02;2.47;;;1.15;;
41329;SDS011;34792;52.154;10.374;2022-12-07T10:24:03;3.33;;;1.65;;
41329;SDS011;34792;52.154;10.374;2022-12-07T10:29:23;1.70;;;0.82;;
41329;SDS011;34792;52.154;10.374;2022-12-07T10:31:52;3.15;;;1.10;;
41329;SDS011;34792;52.154;10.374;2022-12-07T10:34:25;1.90;;;1.02;;
41329;SDS011;34792;52.154;10.374;2022-12-07T10:39:50;3.15;;;1.30;;
41329;SDS011;34792;52.154;10.374;2022-12-07T10:42:30;1.98;;;1.23;;
41329;SDS011;34792;52.154;10.374;2022-12-07T10:53:05;1.60;;;0.80;;
41329;SDS011;34792;52.154;10.374;2022-12-07T11:01:54;1.80;;;0.65;;
41329;SDS011;34792;52.154;10.374;2022-12-07T11:17:19;2.45;;;1.05;;
41329;SDS011;34792;52.154;10.374;2022-12-07T11:22:23;1.75;;;0.70;;
41329;SDS011;34792;52.154;10.374;2022-12-07T11:24:57;1.58;;;0.70;;
41329;SDS011;34792;52.154;10.374;2022-12-07T11:32:53;4.22;;;1.02;;
41329;SDS011;34792;52.154;10.374;2022-12-07T11:35:36;1.60;;;0.82;;
41329;SDS011;34792;52.154;10.374;2022-12-07T11:38:25;1.92;;;0.90;;
41329;SDS011;34792;52.154;10.374;2022-12-07T11:40:55;1.42;;;0.90;;
41329;SDS011;34792;52.154;10.374;2022-12-07T11:43:37;1.73;;;0.90;;
41329;SDS011;34792;52.154;10.374;2022-12-07T11:46:28;1.30;;;0.73;;
41329;SDS011;34792;52.154;10.374;2022-12-07T11:49:10;1.98;;;1.10;;
41329;SDS011;34792;52.154;10.374;2022-12-07T11:51:45;1.75;;;0.70;;
41329;SDS011;34792;52.154;10.374;2022-12-07T11:54:15;2.00;;;1.08;;
41329;SDS011;34792;52.154;10.374;2022-12-07T11:56:54;0.85;;;0.70;;
41329;SDS011;34792;52.154;10.374;2022-12-07T12:01:53;2.47;;;0.85;;
41329;SDS011;34792;52.154;10.374;2022-12-07T12:07:38;1.63;;;0.75;;
41329;SDS011;34792;52.154;10.374;2022-12-07T12:10:18;2.50;;;1.10;;
41329;SDS011;34792;52.154;10.374;2022-12-07T12:21:04;2.20;;;1.23;;
41329;SDS011;34792;52.154;10.374;2022-12-07T12:26:16;1.83;;;0.98;;
41329;SDS011;34792;52.154;10.374;2022-12-07T12:38:48;1.23;;;0.50;;
41329;SDS011;34792;52.154;10.374;2022-12-07T12:43:58;1.20;;;0.70;;
41329;SDS011;34792;52.154;10.374;2022-12-07T12:48:56;0.80;;;0.50;;
41329;SDS011;34792;52.154;10.374;2022-12-07T12:51:53;1.25;;;0.70;;
41329;SDS011;34792;52.154;10.374;2022-12-07T12:54:22;1.35;;;0.68;;
41329;SDS011;34792;52.154;10.374;2022-12-07T12:56:55;1.20;;;0.55;;
41329;SDS011;34792;52.154;10.374;2022-12-07T12:59:31;1.75;;;1.02;;
41329;SDS011;34792;52.154;10.374;2022-12-07T13:05:16;1.17;;;0.50;;
41329;SDS011;34792;52.154;10.374;2022-12-07T13:15:52;1.17;;;0.77;;
41329;SDS011;34792;52.154;10.374;2022-12-07T13:23:31;1.15;;;0.60;;
41329;SDS011;34792;52.154;10.374;2022-12-07T13:26:00;1.33;;;0.82;;
41329;SDS011;34792;52.154;10.374;2022-12-07T13:34:03;2.05;;;0.82;;
41329;SDS011;34792;52.154;10.374;2022-12-07T13:36:31;1.95;;;0.82;;
41329;SDS011;34792;52.154;10.374;2022-12-07T13:39:10;1.70;;;0.52;;
41329;SDS011;34792;52.154;10.374;2022-12-07T13:41:42;1.40;;;0.85;;
41329;SDS011;34792;52.154;10.374;2022-12-07T13:44:12;1.10;;;0.60;;
41329;SDS011;34792;52.154;10.374;2022-12-07T13:47:04;1.10;;;0.55;;
41329;SDS011;34792;52.154;10.374;2022-12-07T13:49:32;4.43;;;1.05;;
41329;SDS011;34792;52.154;10.374;2022-12-07T13:52:18;1.77;;;0.90;;
41329;SDS011;34792;52.154;10.374;2022-12-07T13:57:29;1.10;;;0.60;;
41329;SDS011;34792;52.154;10.374;2022-12-07T13:59:59;1.90;;;0.90;;
41329;SDS011;34792;52.154;10.374;2022-12-07T14:02:27;1.45;;;0.70;;
41329;SDS011;34792;52.154;10.374;2022-12-07T14:07:57;1.90;;;0.85;;
41329;SDS011;34792;52.154;10.374;2022-12-07T14:12:58;1.08;;;0.57;;
41329;SDS011;34792;52.154;10.374;2022-12-07T14:15:28;1.70;;;0.93;;
41329;SDS011;34792;52.154;10.374;2022-12-07T14:17:56;0.63;;;0.43;;
41329;SDS011;34792;52.154;10.374;2022-12-07T14:22:56;0.70;;;0.43;;
41329;SDS011;34792;52.154;10.374;2022-12-07T14:25:23;1.30;;;0.57;;
41329;SDS011;34792;52.154;10.374;2022-12-07T14:30:33;1.05;;;0.60;;
41329;SDS011;34792;52.154;10.374;2022-12-07T14:33:00;1.67;;;0.80;;
41329;SDS011;34792;52.154;10.374;2022-12-07T14:35:27;1.40;;;0.75;;
41329;SDS011;34792;52.154;10.374;2022-12-07T14:37:53;0.90;;;0.63;;
41329;SDS011;34792;52.154;10.374;2022-12-07T14:43:12;1.35;;;0.75;;
41329;SDS011;34792;52.154;10.374;2022-12-07T14:45:40;1.75;;;0.93;;
41329;SDS011;34792;52.154;10.374;2022-12-07T14:48:13;1.55;;;0.50;;
41329;SDS011;34792;52.154;10.374;2022-12-07T14:50:43;2.53;;;1.02;;
41329;SDS011;34792;52.154;10.374;2022-12-07T14:53:14;0.93;;;0.57;;
41329;SDS011;34792;52.154;10.374;2022-12-07T14:55:41;1.17;;;0.55;;
41329;SDS011;34792;52.154;10.374;2022-12-07T14:58:16;1.17;;;0.55;;
41329;SDS011;34792;52.154;10.374;2022-12-07T15:00:42;1.55;;;0.80;;
41329;SDS011;34792;52.154;10.374;2022-12-07T15:03:09;1.35;;;0.57;;
41329;SDS011;34792;52.154;10.374;2022-12-07T15:05:35;1.75;;;0.52;;
41329;SDS011;34792;52.154;10.374;2022-12-07T15:08:01;2.38;;;1.02;;
41329;SDS011;34792;52.154;10.374;2022-12-07T15:10:28;1.00;;;0.40;;
41329;SDS011;34792;52.154;10.374;2022-12-07T15:13:00;1.02;;;0.60;;
41329;SDS011;34792;52.154;10.374;2022-12-07T15:15:45;1.70;;;0.82;;
41329;SDS011;34792;52.154;10.374;2022-12-07T15:18:12;0.80;;;0.50;;
41329;SDS011;34792;52.154;10.374;2022-12-07T15:20:38;1.83;;;0.95;;
41329;SDS011;34792;52.154;10.374;2022-12-07T15:23:04;1.00;;;0.65;;
41329;SDS011;34792;52.154;10.374;2022-12-07T15:25:29;1.73;;;0.73;;
41329;SDS011;34792;52.154;10.374;2022-12-07T15:27:55;1.27;;;0.73;;
41329;SDS011;34792;52.154;10.374;2022-12-07T15:30:20;0.85;;;0.47;;
41329;SDS011;34792;52.154;10.374;2022-12-07T15:32:49;0.60;;;0.30;;
41329;SDS011;34792;52.154;10.374;2022-12-07T15:35:15;1.90;;;1.00;;
41329;SDS011;34792;52.154;10.374;2022-12-07T15:37:41;0.82;;;0.63;;
41329;SDS011;34792;52.154;10.374;2022-12-07T15:40:07;2.55;;;0.93;;
41329;SDS011;34792;52.154;10.374;2022-12-07T15:42:33;1.13;;;0.60;;
41329;SDS011;34792;52.154;10.374;2022-12-07T15:44:58;2.70;;;0.98;;
41329;SDS011;34792;52.154;10.374;2022-12-07T15:47:33;1.73;;;0.60;;
41329;SDS011;34792;52.154;10.374;2022-12-07T15:50:01;2.67;;;0.93;;
41329;SDS011;34792;52.154;10.374;2022-12-07T15:52:31;1.52;;;0.63;;
41329;SDS011;34792;52.154;10.374;2022-12-07T15:54:57;1.58;;;0.65;;
41329;SDS011;34792;52.154;10.374;2022-12-07T15:57:24;0.80;;;0.32;;
41329;SDS011;34792;52.154;10.374;2022-12-07T15:59:50;1.42;;;0.77;;
41329;SDS011;34792;52.154;10.374;2022-12-07T16:02:16;0.90;;;0.30;;
41329;SDS011;34792;52.154;10.374;2022-12-07T16:04:41;2.15;;;0.77;;
41329;SDS011;34792;52.154;10.374;2022-12-07T16:07:07;1.23;;;0.70;;
41329;SDS011;34792;52.154;10.374;2022-12-07T16:09:33;1.55;;;0.75;;
41329;SDS011;34792;52.154;10.374;2022-12-07T16:11:58;1.65;;;0.68;;
41329;SDS011;34792;52.154;10.374;2022-12-07T16:14:24;0.93;;;0.60;;
41329;SDS011;34792;52.154;10.374;2022-12-07T16:16:49;1.38;;;0.80;;
41329;SDS011;34792;52.154;10.374;2022-12-07T16:19:15;1.08;;;0.52;;
41329;SDS011;34792;52.154;10.374;2022-12-07T16:21:40;1.08;;;0.52;;
41329;SDS011;34792;52.154;10.374;2022-12-07T16:24:07;0.90;;;0.40;;
41329;SDS011;34792;52.154;10.374;2022-12-07T16:26:33;1.33;;;0.77;;
41329;SDS011;34792;52.154;10.374;2022-12-07T16:28:59;1.80;;;0.88;;
41329;SDS011;34792;52.154;10.374;2022-12-07T16:31:26;1.65;;;0.70;;
41329;SDS011;34792;52.154;10.374;2022-12-07T16:33:52;0.85;;;0.50;;
41329;SDS011;34792;52.154;10.374;2022-12-07T16:36:20;1.25;;;0.60;;
41329;SDS011;34792;52.154;10.374;2022-12-07T16:38:47;0.98;;;0.50;;
41329;SDS011;34792;52.154;10.374;2022-12-07T16:41:12;0.80;;;0.40;;
41329;SDS011;34792;52.154;10.374;2022-12-07T16:43:38;0.70;;;0.45;;
41329;SDS011;34792;52.154;10.374;2022-12-07T16:46:04;1.05;;;0.50;;
41329;SDS011;34792;52.154;10.374;2022-12-07T16:48:30;1.77;;;0.77;;
41329;SDS011;34792;52.154;10.374;2022-12-07T16:50:55;1.85;;;0.63;;
41329;SDS011;34792;52.154;10.374;2022-12-07T16:53:22;0.93;;;0.50;;
41329;SDS011;34792;52.154;10.374;2022-12-07T16:55:49;2.20;;;0.50;;
41329;SDS011;34792;52.154;10.374;2022-12-07T16:58:15;1.38;;;0.70;;
41329;SDS011;34792;52.154;10.374;2022-12-07T17:00:42;1.70;;;0.90;;
41329;SDS011;34792;52.154;10.374;2022-12-07T17:03:08;1.08;;;0.50;;
41329;SDS011;34792;52.154;10.374;2022-12-07T17:05:41;1.77;;;0.70;;
41329;SDS011;34792;52.154;10.374;2022-12-07T17:08:07;0.50;;;0.22;;
41329;SDS011;34792;52.154;10.374;2022-12-07T17:10:34;1.70;;;1.15;;
41329;SDS011;34792;52.154;10.374;2022-12-07T17:13:01;0.63;;;0.38;;
41329;SDS011;34792;52.154;10.374;2022-12-07T17:15:57;1.05;;;0.60;;